sensor_id;sensor_type;location;lat;lon;timestamp;temperature;humidity
6581;DHT22;3324;50.796;7.228;2024-02-21T00:01:21;10.30;99.90
6581;DHT22;3324;50.796;7.228;2024-02-21T00:03:47;10.30;99.90
6581;DHT22;3324;50.796;7.228;2024-02-21T00:06:12;10.30;99.90
6581;DHT22;3324;50.796;7.228;2024-02-21T00:08:38;10.20;99.90
6581;DHT22;3324;50.796;7.228;2024-02-21T00:11:03;10.30;99.90
6581;DHT22;3324;50.796;7.228;2024-02-21T00:13:29;10.30;99.90
6581;DHT22;3324;50.796;7.228;2024-02-21T00:15:55;10.30;99.90
6581;DHT22;3324;50.796;7.228;2024-02-21T00:18:20;10.30;99.90
6581;DHT22;3324;50.796;7.228;2024-02-21T00:20:46;10.20;99.90
6581;DHT22;3324;50.796;7.228;2024-02-21T00:23:11;10.20;99.90
6581;DHT22;3324;50.796;7.228;2024-02-21T00:25:37;10.20;99.90
6581;DHT22;3324;50.796;7.228;2024-02-21T00:28:02;10.20;99.90
6581;DHT22;3324;50.796;7.228;2024-02-21T00:30:28;10.20;99.90
6581;DHT22;3324;50.796;7.228;2024-02-21T00:32:53;10.20;99.90
6581;DHT22;3324;50.796;7.228;2024-02-21T00:35:19;10.20;99.90
6581;DHT22;3324;50.796;7.228;2024-02-21T00:37:44;10.20;99.90
6581;DHT22;3324;50.796;7.228;2024-02-21T00:40:10;10.30;99.90
6581;DHT22;3324;50.796;7.228;2024-02-21T00:42:36;10.30;99.90
6581;DHT22;3324;50.796;7.228;2024-02-21T00:45:01;10.20;99.90
6581;DHT22;3324;50.796;7.228;2024-02-21T00:47:27;10.20;99.90
6581;DHT22;3324;50.796;7.228;2024-02-21T00:49:52;10.20;99.90
6581;DHT22;3324;50.796;7.228;2024-02-21T00:52:18;10.10;99.90
6581;DHT22;3324;50.796;7.228;2024-02-21T00:54:43;10.10;99.90
6581;DHT22;3324;50.796;7.228;2024-02-21T00:57:09;10.10;99.90
6581;DHT22;3324;50.796;7.228;2024-02-21T00:59:34;10.10;99.90
6581;DHT22;3324;50.796;7.228;2024-02-21T01:02:00;10.10;99.90
6581;DHT22;3324;50.796;7.228;2024-02-21T01:04:25;10.10;99.90
6581;DHT22;3324;50.796;7.228;2024-02-21T01:06:51;10.00;99.90
6581;DHT22;3324;50.796;7.228;2024-02-21T01:09:16;10.00;99.90
6581;DHT22;3324;50.796;7.228;2024-02-21T01:11:41;10.00;99.90
6581;DHT22;3324;50.796;7.228;2024-02-21T01:14:07;10.00;99.90
6581;DHT22;3324;50.796;7.228;2024-02-21T01:16:32;10.10;99.90
6581;DHT22;3324;50.796;7.228;2024-02-21T01:18:58;10.00;99.90
6581;DHT22;3324;50.796;7.228;2024-02-21T01:21:23;10.00;99.90
6581;DHT22;3324;50.796;7.228;2024-02-21T01:23:49;10.10;99.90
6581;DHT22;3324;50.796;7.228;2024-02-21T01:26:14;9.90;99.90
6581;DHT22;3324;50.796;7.228;2024-02-21T01:28:41;10.00;99.90
6581;DHT22;3324;50.796;7.228;2024-02-21T01:31:06;10.10;99.90
6581;DHT22;3324;50.796;7.228;2024-02-21T01:33:32;10.00;99.90
6581;DHT22;3324;50.796;7.228;2024-02-21T01:36:03;10.00;99.90
6581;DHT22;3324;50.796;7.228;2024-02-21T01:38:29;10.00;99.90
6581;DHT22;3324;50.796;7.228;2024-02-21T01:40:55;10.00;99.90
6581;DHT22;3324;50.796;7.228;2024-02-21T01:43:20;10.00;99.90
6581;DHT22;3324;50.796;7.228;2024-02-21T01:45:47;10.00;99.90
6581;DHT22;3324;50.796;7.228;2024-02-21T01:48:14;10.00;99.90
6581;DHT22;3324;50.796;7.228;2024-02-21T01:50:39;9.90;99.90
6581;DHT22;3324;50.796;7.228;2024-02-21T01:53:05;9.90;99.90
6581;DHT22;3324;50.796;7.228;2024-02-21T01:55:30;10.10;99.90
6581;DHT22;3324;50.796;7.228;2024-02-21T01:57:56;10.10;99.90
6581;DHT22;3324;50.796;7.228;2024-02-21T02:00:21;10.00;99.90
6581;DHT22;3324;50.796;7.228;2024-02-21T02:02:47;10.10;99.90
6581;DHT22;3324;50.796;7.228;2024-02-21T02:05:13;10.10;99.90
6581;DHT22;3324;50.796;7.228;2024-02-21T02:07:38;10.10;99.90
6581;DHT22;3324;50.796;7.228;2024-02-21T02:10:04;10.10;99.90
6581;DHT22;3324;50.796;7.228;2024-02-21T02:12:29;10.00;99.90
6581;DHT22;3324;50.796;7.228;2024-02-21T02:14:59;10.00;99.90
6581;DHT22;3324;50.796;7.228;2024-02-21T02:17:24;10.00;99.90
6581;DHT22;3324;50.796;7.228;2024-02-21T02:19:50;9.90;99.90
6581;DHT22;3324;50.796;7.228;2024-02-21T02:22:17;9.90;99.90
6581;DHT22;3324;50.796;7.228;2024-02-21T02:24:43;9.90;99.90
6581;DHT22;3324;50.796;7.228;2024-02-21T02:27:08;9.90;99.90
6581;DHT22;3324;50.796;7.228;2024-02-21T02:29:34;9.90;99.90
6581;DHT22;3324;50.796;7.228;2024-02-21T02:32:00;9.90;99.90
6581;DHT22;3324;50.796;7.228;2024-02-21T02:34:25;9.90;99.90
6581;DHT22;3324;50.796;7.228;2024-02-21T02:36:51;9.90;99.90
6581;DHT22;3324;50.796;7.228;2024-02-21T02:39:16;9.90;99.90
6581;DHT22;3324;50.796;7.228;2024-02-21T02:41:42;9.90;99.90
6581;DHT22;3324;50.796;7.228;2024-02-21T02:44:07;9.90;99.90
6581;DHT22;3324;50.796;7.228;2024-02-21T02:46:33;9.90;99.90
6581;DHT22;3324;50.796;7.228;2024-02-21T02:48:59;9.90;99.90
6581;DHT22;3324;50.796;7.228;2024-02-21T02:51:24;9.90;99.90
6581;DHT22;3324;50.796;7.228;2024-02-21T02:53:50;9.90;99.90
6581;DHT22;3324;50.796;7.228;2024-02-21T02:56:15;9.90;99.90
6581;DHT22;3324;50.796;7.228;2024-02-21T02:58:42;9.90;99.90
6581;DHT22;3324;50.796;7.228;2024-02-21T03:01:08;9.80;99.90
6581;DHT22;3324;50.796;7.228;2024-02-21T03:03:33;9.80;99.90
6581;DHT22;3324;50.796;7.228;2024-02-21T03:05:59;9.80;99.90
6581;DHT22;3324;50.796;7.228;2024-02-21T03:08:24;9.80;99.90
6581;DHT22;3324;50.796;7.228;2024-02-21T03:10:51;9.80;99.90
6581;DHT22;3324;50.796;7.228;2024-02-21T03:13:16;9.80;99.90
6581;DHT22;3324;50.796;7.228;2024-02-21T03:15:42;9.70;99.90
6581;DHT22;3324;50.796;7.228;2024-02-21T03:18:07;9.70;99.90
6581;DHT22;3324;50.796;7.228;2024-02-21T03:20:33;9.70;99.90
6581;DHT22;3324;50.796;7.228;2024-02-21T03:22:58;9.80;99.90
6581;DHT22;3324;50.796;7.228;2024-02-21T03:25:24;9.80;99.90
6581;DHT22;3324;50.796;7.228;2024-02-21T03:27:49;9.80;99.90
6581;DHT22;3324;50.796;7.228;2024-02-21T03:30:15;9.80;99.90
6581;DHT22;3324;50.796;7.228;2024-02-21T03:32:40;9.70;99.90
6581;DHT22;3324;50.796;7.228;2024-02-21T03:35:06;9.80;99.90
6581;DHT22;3324;50.796;7.228;2024-02-21T03:37:32;9.70;99.90
6581;DHT22;3324;50.796;7.228;2024-02-21T03:39:57;9.80;99.90
6581;DHT22;3324;50.796;7.228;2024-02-21T03:42:22;9.80;99.90
6581;DHT22;3324;50.796;7.228;2024-02-21T03:44:48;9.80;99.90
6581;DHT22;3324;50.796;7.228;2024-02-21T03:47:14;9.80;99.90
6581;DHT22;3324;50.796;7.228;2024-02-21T03:49:39;9.80;99.90
6581;DHT22;3324;50.796;7.228;2024-02-21T03:52:04;9.80;99.90
6581;DHT22;3324;50.796;7.228;2024-02-21T03:54:30;9.80;99.90
6581;DHT22;3324;50.796;7.228;2024-02-21T03:56:55;9.80;99.90
6581;DHT22;3324;50.796;7.228;2024-02-21T03:59:22;9.80;99.90
6581;DHT22;3324;50.796;7.228;2024-02-21T04:01:51;9.90;99.90
6581;DHT22;3324;50.796;7.228;2024-02-21T04:04:16;9.90;99.90
6581;DHT22;3324;50.796;7.228;2024-02-21T04:06:51;9.80;99.90
6581;DHT22;3324;50.796;7.228;2024-02-21T04:09:16;9.80;99.90
6581;DHT22;3324;50.796;7.228;2024-02-21T04:11:42;9.80;99.90
6581;DHT22;3324;50.796;7.228;2024-02-21T04:14:08;9.90;99.90
6581;DHT22;3324;50.796;7.228;2024-02-21T04:16:34;9.80;99.90
6581;DHT22;3324;50.796;7.228;2024-02-21T04:18:59;9.80;99.90
6581;DHT22;3324;50.796;7.228;2024-02-21T04:21:25;9.80;99.90
6581;DHT22;3324;50.796;7.228;2024-02-21T04:23:50;9.70;99.90
6581;DHT22;3324;50.796;7.228;2024-02-21T04:26:16;9.80;99.90
6581;DHT22;3324;50.796;7.228;2024-02-21T04:28:42;9.80;99.90
6581;DHT22;3324;50.796;7.228;2024-02-21T04:31:07;9.80;99.90
6581;DHT22;3324;50.796;7.228;2024-02-21T04:33:33;9.80;99.90
6581;DHT22;3324;50.796;7.228;2024-02-21T04:35:58;9.80;99.90
6581;DHT22;3324;50.796;7.228;2024-02-21T04:38:26;9.90;99.90
6581;DHT22;3324;50.796;7.228;2024-02-21T04:40:51;9.80;99.90
6581;DHT22;3324;50.796;7.228;2024-02-21T04:43:17;9.80;99.90
6581;DHT22;3324;50.796;7.228;2024-02-21T04:45:42;9.70;99.90
6581;DHT22;3324;50.796;7.228;2024-02-21T04:48:08;9.70;99.90
6581;DHT22;3324;50.796;7.228;2024-02-21T04:50:33;9.80;99.90
6581;DHT22;3324;50.796;7.228;2024-02-21T04:52:59;9.90;99.90
6581;DHT22;3324;50.796;7.228;2024-02-21T04:55:24;9.90;99.90
6581;DHT22;3324;50.796;7.228;2024-02-21T04:57:50;10.00;99.90
6581;DHT22;3324;50.796;7.228;2024-02-21T05:00:15;9.90;99.90
6581;DHT22;3324;50.796;7.228;2024-02-21T05:02:41;9.90;99.90
6581;DHT22;3324;50.796;7.228;2024-02-21T05:05:06;9.90;99.90
6581;DHT22;3324;50.796;7.228;2024-02-21T05:07:32;9.80;99.90
6581;DHT22;3324;50.796;7.228;2024-02-21T05:09:57;9.80;99.90
6581;DHT22;3324;50.796;7.228;2024-02-21T05:12:23;9.80;99.90
6581;DHT22;3324;50.796;7.228;2024-02-21T05:14:48;9.80;99.90
6581;DHT22;3324;50.796;7.228;2024-02-21T05:17:14;9.70;99.90
6581;DHT22;3324;50.796;7.228;2024-02-21T05:19:40;9.70;99.90
6581;DHT22;3324;50.796;7.228;2024-02-21T05:22:05;9.70;99.90
6581;DHT22;3324;50.796;7.228;2024-02-21T05:24:31;9.70;99.90
6581;DHT22;3324;50.796;7.228;2024-02-21T05:26:56;9.70;99.90
6581;DHT22;3324;50.796;7.228;2024-02-21T05:29:22;9.70;99.90
6581;DHT22;3324;50.796;7.228;2024-02-21T05:34:16;9.80;99.90
6581;DHT22;3324;50.796;7.228;2024-02-21T05:36:41;9.80;99.90
6581;DHT22;3324;50.796;7.228;2024-02-21T05:39:07;9.80;99.90
6581;DHT22;3324;50.796;7.228;2024-02-21T05:41:33;9.80;99.90
6581;DHT22;3324;50.796;7.228;2024-02-21T05:43:58;9.80;99.90
6581;DHT22;3324;50.796;7.228;2024-02-21T05:46:23;9.90;99.90
6581;DHT22;3324;50.796;7.228;2024-02-21T05:48:49;9.80;99.90
6581;DHT22;3324;50.796;7.228;2024-02-21T05:51:15;9.80;99.90
6581;DHT22;3324;50.796;7.228;2024-02-21T05:53:40;9.70;99.90
6581;DHT22;3324;50.796;7.228;2024-02-21T05:56:15;9.80;99.90
6581;DHT22;3324;50.796;7.228;2024-02-21T05:58:40;9.80;99.90
6581;DHT22;3324;50.796;7.228;2024-02-21T06:01:06;9.80;99.90
6581;DHT22;3324;50.796;7.228;2024-02-21T06:03:34;9.80;99.90
6581;DHT22;3324;50.796;7.228;2024-02-21T06:06:00;9.80;99.90
6581;DHT22;3324;50.796;7.228;2024-02-21T06:08:26;9.70;99.90
6581;DHT22;3324;50.796;7.228;2024-02-21T06:10:51;9.80;99.90
6581;DHT22;3324;50.796;7.228;2024-02-21T06:13:20;9.80;99.90
6581;DHT22;3324;50.796;7.228;2024-02-21T06:15:47;9.80;99.90
6581;DHT22;3324;50.796;7.228;2024-02-21T06:18:12;9.80;99.90
6581;DHT22;3324;50.796;7.228;2024-02-21T06:20:37;9.70;99.90
6581;DHT22;3324;50.796;7.228;2024-02-21T06:23:05;9.80;99.90
6581;DHT22;3324;50.796;7.228;2024-02-21T06:25:31;9.70;99.90
6581;DHT22;3324;50.796;7.228;2024-02-21T06:27:56;9.70;99.90
6581;DHT22;3324;50.796;7.228;2024-02-21T06:30:22;9.60;99.90
6581;DHT22;3324;50.796;7.228;2024-02-21T06:32:47;9.60;99.90
6581;DHT22;3324;50.796;7.228;2024-02-21T06:35:13;9.60;99.90
6581;DHT22;3324;50.796;7.228;2024-02-21T06:37:38;9.70;99.90
6581;DHT22;3324;50.796;7.228;2024-02-21T06:40:04;9.70;99.90
6581;DHT22;3324;50.796;7.228;2024-02-21T06:42:30;9.70;99.90
6581;DHT22;3324;50.796;7.228;2024-02-21T06:44:56;9.60;99.90
6581;DHT22;3324;50.796;7.228;2024-02-21T06:47:21;9.60;99.90
6581;DHT22;3324;50.796;7.228;2024-02-21T06:49:50;9.50;99.90
6581;DHT22;3324;50.796;7.228;2024-02-21T06:52:19;9.50;99.90
6581;DHT22;3324;50.796;7.228;2024-02-21T06:54:49;9.50;99.90
6581;DHT22;3324;50.796;7.228;2024-02-21T06:57:14;9.50;99.90
6581;DHT22;3324;50.796;7.228;2024-02-21T06:59:41;9.40;99.90
6581;DHT22;3324;50.796;7.228;2024-02-21T07:02:06;9.40;99.90
6581;DHT22;3324;50.796;7.228;2024-02-21T07:04:32;9.40;99.90
6581;DHT22;3324;50.796;7.228;2024-02-21T07:06:57;9.40;99.90
6581;DHT22;3324;50.796;7.228;2024-02-21T07:09:23;9.40;99.90
6581;DHT22;3324;50.796;7.228;2024-02-21T07:11:48;9.40;99.90
6581;DHT22;3324;50.796;7.228;2024-02-21T07:14:14;9.40;99.90
6581;DHT22;3324;50.796;7.228;2024-02-21T07:16:40;9.40;99.90
6581;DHT22;3324;50.796;7.228;2024-02-21T07:19:05;9.40;99.90
6581;DHT22;3324;50.796;7.228;2024-02-21T07:21:31;9.40;99.90
6581;DHT22;3324;50.796;7.228;2024-02-21T07:23:56;9.40;99.90
6581;DHT22;3324;50.796;7.228;2024-02-21T07:26:22;9.40;99.90
6581;DHT22;3324;50.796;7.228;2024-02-21T07:28:47;9.50;99.90
6581;DHT22;3324;50.796;7.228;2024-02-21T07:31:13;9.50;99.90
6581;DHT22;3324;50.796;7.228;2024-02-21T07:33:38;9.50;99.90
6581;DHT22;3324;50.796;7.228;2024-02-21T07:36:07;9.50;99.90
6581;DHT22;3324;50.796;7.228;2024-02-21T07:38:33;9.50;99.90
6581;DHT22;3324;50.796;7.228;2024-02-21T07:40:59;9.50;99.90
6581;DHT22;3324;50.796;7.228;2024-02-21T07:43:24;9.50;99.90
6581;DHT22;3324;50.796;7.228;2024-02-21T07:45:52;9.50;99.90
6581;DHT22;3324;50.796;7.228;2024-02-21T07:48:18;9.50;99.90
6581;DHT22;3324;50.796;7.228;2024-02-21T07:50:44;9.50;99.90
6581;DHT22;3324;50.796;7.228;2024-02-21T07:53:09;9.40;99.90
6581;DHT22;3324;50.796;7.228;2024-02-21T07:55:35;9.50;99.90
6581;DHT22;3324;50.796;7.228;2024-02-21T07:58:00;9.50;99.90
6581;DHT22;3324;50.796;7.228;2024-02-21T08:00:26;9.50;99.90
6581;DHT22;3324;50.796;7.228;2024-02-21T08:02:51;9.50;99.90
6581;DHT22;3324;50.796;7.228;2024-02-21T08:05:17;9.50;99.90
6581;DHT22;3324;50.796;7.228;2024-02-21T08:07:43;9.50;99.90
6581;DHT22;3324;50.796;7.228;2024-02-21T08:10:08;9.60;99.90
6581;DHT22;3324;50.796;7.228;2024-02-21T08:12:34;9.60;99.90
6581;DHT22;3324;50.796;7.228;2024-02-21T08:14:59;9.60;99.90
6581;DHT22;3324;50.796;7.228;2024-02-21T08:17:25;9.50;99.90
6581;DHT22;3324;50.796;7.228;2024-02-21T08:19:50;9.50;99.90
6581;DHT22;3324;50.796;7.228;2024-02-21T08:22:16;9.50;99.90
6581;DHT22;3324;50.796;7.228;2024-02-21T08:24:43;9.50;99.90
6581;DHT22;3324;50.796;7.228;2024-02-21T08:27:09;9.50;99.90
6581;DHT22;3324;50.796;7.228;2024-02-21T08:29:34;9.50;99.90
6581;DHT22;3324;50.796;7.228;2024-02-21T08:32:00;9.50;99.90
6581;DHT22;3324;50.796;7.228;2024-02-21T08:34:25;9.50;99.90
6581;DHT22;3324;50.796;7.228;2024-02-21T08:36:51;9.60;99.90
6581;DHT22;3324;50.796;7.228;2024-02-21T08:39:16;9.60;99.90
6581;DHT22;3324;50.796;7.228;2024-02-21T08:41:42;9.50;99.90
6581;DHT22;3324;50.796;7.228;2024-02-21T08:44:07;9.60;99.90
6581;DHT22;3324;50.796;7.228;2024-02-21T08:46:33;9.60;99.90
6581;DHT22;3324;50.796;7.228;2024-02-21T08:48:58;9.70;99.90
6581;DHT22;3324;50.796;7.228;2024-02-21T08:51:24;9.70;99.90
6581;DHT22;3324;50.796;7.228;2024-02-21T08:53:49;9.80;99.90
6581;DHT22;3324;50.796;7.228;2024-02-21T08:56:15;9.80;99.90
6581;DHT22;3324;50.796;7.228;2024-02-21T08:58:41;9.80;99.90
6581;DHT22;3324;50.796;7.228;2024-02-21T09:01:07;9.70;99.90
6581;DHT22;3324;50.796;7.228;2024-02-21T09:03:38;9.80;99.90
6581;DHT22;3324;50.796;7.228;2024-02-21T09:06:04;9.80;99.90
6581;DHT22;3324;50.796;7.228;2024-02-21T09:08:29;9.80;99.90
6581;DHT22;3324;50.796;7.228;2024-02-21T09:10:55;9.90;99.90
6581;DHT22;3324;50.796;7.228;2024-02-21T09:13:20;9.90;99.90
6581;DHT22;3324;50.796;7.228;2024-02-21T09:15:47;9.90;99.90
6581;DHT22;3324;50.796;7.228;2024-02-21T09:18:14;10.00;99.90
6581;DHT22;3324;50.796;7.228;2024-02-21T09:20:39;10.00;99.90
6581;DHT22;3324;50.796;7.228;2024-02-21T09:23:05;10.00;99.90
6581;DHT22;3324;50.796;7.228;2024-02-21T09:25:30;10.20;99.90
6581;DHT22;3324;50.796;7.228;2024-02-21T09:27:57;10.20;99.90
6581;DHT22;3324;50.796;7.228;2024-02-21T09:30:23;10.20;99.90
6581;DHT22;3324;50.796;7.228;2024-02-21T09:32:49;10.20;99.90
6581;DHT22;3324;50.796;7.228;2024-02-21T09:35:15;10.30;99.90
6581;DHT22;3324;50.796;7.228;2024-02-21T09:37:40;10.30;99.90
6581;DHT22;3324;50.796;7.228;2024-02-21T09:40:06;10.30;99.90
6581;DHT22;3324;50.796;7.228;2024-02-21T09:42:38;10.30;99.90
6581;DHT22;3324;50.796;7.228;2024-02-21T09:45:20;10.30;99.90
6581;DHT22;3324;50.796;7.228;2024-02-21T09:50:24;10.30;99.90
6581;DHT22;3324;50.796;7.228;2024-02-21T09:52:50;10.30;99.90
6581;DHT22;3324;50.796;7.228;2024-02-21T09:55:17;10.40;99.90
6581;DHT22;3324;50.796;7.228;2024-02-21T09:57:43;10.40;99.90
6581;DHT22;3324;50.796;7.228;2024-02-21T10:00:09;10.40;99.90
6581;DHT22;3324;50.796;7.228;2024-02-21T10:02:35;10.50;99.90
6581;DHT22;3324;50.796;7.228;2024-02-21T10:05:00;10.50;99.90
6581;DHT22;3324;50.796;7.228;2024-02-21T10:07:26;10.50;99.90
6581;DHT22;3324;50.796;7.228;2024-02-21T10:10:01;10.50;99.90
6581;DHT22;3324;50.796;7.228;2024-02-21T10:12:27;10.60;99.90
6581;DHT22;3324;50.796;7.228;2024-02-21T10:15:05;10.60;99.90
6581;DHT22;3324;50.796;7.228;2024-02-21T10:17:31;10.60;99.90
6581;DHT22;3324;50.796;7.228;2024-02-21T10:20:07;10.60;99.90
6581;DHT22;3324;50.796;7.228;2024-02-21T10:22:33;10.60;99.90
6581;DHT22;3324;50.796;7.228;2024-02-21T10:25:10;10.70;99.90
6581;DHT22;3324;50.796;7.228;2024-02-21T10:27:38;10.80;99.90
6581;DHT22;3324;50.796;7.228;2024-02-21T10:30:05;10.90;99.90
6581;DHT22;3324;50.796;7.228;2024-02-21T10:32:30;10.90;99.90
6581;DHT22;3324;50.796;7.228;2024-02-21T10:35:02;11.10;99.90
6581;DHT22;3324;50.796;7.228;2024-02-21T10:37:31;11.10;99.90
6581;DHT22;3324;50.796;7.228;2024-02-21T10:40:00;11.20;99.90
6581;DHT22;3324;50.796;7.228;2024-02-21T10:42:27;11.20;99.90
6581;DHT22;3324;50.796;7.228;2024-02-21T10:44:54;11.20;99.90
6581;DHT22;3324;50.796;7.228;2024-02-21T10:47:21;11.20;99.90
6581;DHT22;3324;50.796;7.228;2024-02-21T10:49:49;11.40;99.90
6581;DHT22;3324;50.796;7.228;2024-02-21T10:52:22;11.40;99.90
6581;DHT22;3324;50.796;7.228;2024-02-21T10:54:56;11.40;99.90
6581;DHT22;3324;50.796;7.228;2024-02-21T10:57:23;11.40;99.90
6581;DHT22;3324;50.796;7.228;2024-02-21T10:59:50;11.40;99.90
6581;DHT22;3324;50.796;7.228;2024-02-21T11:02:16;11.40;99.90
6581;DHT22;3324;50.796;7.228;2024-02-21T11:04:41;11.40;99.90
6581;DHT22;3324;50.796;7.228;2024-02-21T11:07:07;11.50;99.90
6581;DHT22;3324;50.796;7.228;2024-02-21T11:09:33;11.50;99.90
6581;DHT22;3324;50.796;7.228;2024-02-21T11:11:58;11.50;99.90
6581;DHT22;3324;50.796;7.228;2024-02-21T11:14:26;11.60;99.90
6581;DHT22;3324;50.796;7.228;2024-02-21T11:16:52;11.60;99.90
6581;DHT22;3324;50.796;7.228;2024-02-21T11:19:21;11.60;99.90
6581;DHT22;3324;50.796;7.228;2024-02-21T11:21:47;11.60;99.90
6581;DHT22;3324;50.796;7.228;2024-02-21T11:24:13;11.70;99.90
6581;DHT22;3324;50.796;7.228;2024-02-21T11:26:39;11.70;99.90
6581;DHT22;3324;50.796;7.228;2024-02-21T11:29:05;11.80;99.90
6581;DHT22;3324;50.796;7.228;2024-02-21T11:31:43;11.90;99.90
6581;DHT22;3324;50.796;7.228;2024-02-21T11:34:11;11.80;99.90
6581;DHT22;3324;50.796;7.228;2024-02-21T11:36:46;11.80;99.90
6581;DHT22;3324;50.796;7.228;2024-02-21T11:39:11;11.80;99.90
6581;DHT22;3324;50.796;7.228;2024-02-21T11:41:37;11.90;99.90
6581;DHT22;3324;50.796;7.228;2024-02-21T11:44:02;12.00;99.90
6581;DHT22;3324;50.796;7.228;2024-02-21T11:46:29;12.00;99.90
6581;DHT22;3324;50.796;7.228;2024-02-21T11:48:54;12.00;99.90
6581;DHT22;3324;50.796;7.228;2024-02-21T11:51:21;12.10;99.90
6581;DHT22;3324;50.796;7.228;2024-02-21T11:53:46;12.10;99.90
6581;DHT22;3324;50.796;7.228;2024-02-21T11:56:13;12.20;99.90
6581;DHT22;3324;50.796;7.228;2024-02-21T11:58:38;12.10;99.90
6581;DHT22;3324;50.796;7.228;2024-02-21T12:01:04;12.20;99.90
6581;DHT22;3324;50.796;7.228;2024-02-21T12:03:29;12.20;99.90
6581;DHT22;3324;50.796;7.228;2024-02-21T12:05:56;12.10;99.90
6581;DHT22;3324;50.796;7.228;2024-02-21T12:08:22;12.20;99.90
6581;DHT22;3324;50.796;7.228;2024-02-21T12:10:47;12.20;99.90
6581;DHT22;3324;50.796;7.228;2024-02-21T12:13:16;12.20;99.90
6581;DHT22;3324;50.796;7.228;2024-02-21T12:15:42;12.10;99.90
6581;DHT22;3324;50.796;7.228;2024-02-21T12:18:12;12.20;99.90
6581;DHT22;3324;50.796;7.228;2024-02-21T12:20:38;12.20;99.90
6581;DHT22;3324;50.796;7.228;2024-02-21T12:23:03;12.20;99.90
6581;DHT22;3324;50.796;7.228;2024-02-21T12:25:29;12.20;99.90
6581;DHT22;3324;50.796;7.228;2024-02-21T12:27:54;12.10;99.90
6581;DHT22;3324;50.796;7.228;2024-02-21T12:30:21;12.20;99.90
6581;DHT22;3324;50.796;7.228;2024-02-21T12:32:47;12.30;99.90
6581;DHT22;3324;50.796;7.228;2024-02-21T12:35:14;12.30;99.90
6581;DHT22;3324;50.796;7.228;2024-02-21T12:37:39;12.30;99.90
6581;DHT22;3324;50.796;7.228;2024-02-21T12:40:05;12.30;99.90
6581;DHT22;3324;50.796;7.228;2024-02-21T12:42:32;12.30;99.90
6581;DHT22;3324;50.796;7.228;2024-02-21T12:44:58;12.40;99.90
6581;DHT22;3324;50.796;7.228;2024-02-21T12:47:24;12.30;99.90
6581;DHT22;3324;50.796;7.228;2024-02-21T12:49:52;12.40;99.90
6581;DHT22;3324;50.796;7.228;2024-02-21T12:52:17;12.50;99.90
6581;DHT22;3324;50.796;7.228;2024-02-21T12:54:43;12.50;99.90
6581;DHT22;3324;50.796;7.228;2024-02-21T12:57:08;12.50;99.90
6581;DHT22;3324;50.796;7.228;2024-02-21T12:59:34;12.40;99.90
6581;DHT22;3324;50.796;7.228;2024-02-21T13:01:59;12.50;99.90
6581;DHT22;3324;50.796;7.228;2024-02-21T13:04:25;12.50;99.90
6581;DHT22;3324;50.796;7.228;2024-02-21T13:06:50;12.40;99.90
6581;DHT22;3324;50.796;7.228;2024-02-21T13:09:16;12.40;99.90
6581;DHT22;3324;50.796;7.228;2024-02-21T13:11:42;12.50;99.90
6581;DHT22;3324;50.796;7.228;2024-02-21T13:14:08;12.60;99.90
6581;DHT22;3324;50.796;7.228;2024-02-21T13:16:33;12.60;99.90
6581;DHT22;3324;50.796;7.228;2024-02-21T13:19:07;12.50;99.90
6581;DHT22;3324;50.796;7.228;2024-02-21T13:21:34;12.50;99.90
6581;DHT22;3324;50.796;7.228;2024-02-21T13:23:59;12.50;99.90
6581;DHT22;3324;50.796;7.228;2024-02-21T13:26:25;12.50;99.90
6581;DHT22;3324;50.796;7.228;2024-02-21T13:28:51;12.50;99.90
6581;DHT22;3324;50.796;7.228;2024-02-21T13:31:16;12.40;99.90
6581;DHT22;3324;50.796;7.228;2024-02-21T13:33:42;12.30;99.90
6581;DHT22;3324;50.796;7.228;2024-02-21T13:36:09;12.30;99.90
6581;DHT22;3324;50.796;7.228;2024-02-21T13:38:35;12.20;99.90
6581;DHT22;3324;50.796;7.228;2024-02-21T13:41:00;12.20;99.90
6581;DHT22;3324;50.796;7.228;2024-02-21T13:43:26;12.20;99.90
6581;DHT22;3324;50.796;7.228;2024-02-21T13:45:58;12.20;99.90
6581;DHT22;3324;50.796;7.228;2024-02-21T13:48:23;12.20;99.90
6581;DHT22;3324;50.796;7.228;2024-02-21T13:50:50;12.10;99.90
6581;DHT22;3324;50.796;7.228;2024-02-21T13:53:15;12.10;99.90
6581;DHT22;3324;50.796;7.228;2024-02-21T13:55:46;12.10;99.90
6581;DHT22;3324;50.796;7.228;2024-02-21T13:58:12;12.10;99.90
6581;DHT22;3324;50.796;7.228;2024-02-21T14:00:37;12.00;99.90
6581;DHT22;3324;50.796;7.228;2024-02-21T14:03:03;12.00;99.90
6581;DHT22;3324;50.796;7.228;2024-02-21T14:05:28;12.10;99.90
6581;DHT22;3324;50.796;7.228;2024-02-21T14:07:54;12.10;99.90
6581;DHT22;3324;50.796;7.228;2024-02-21T14:10:20;12.10;99.90
6581;DHT22;3324;50.796;7.228;2024-02-21T14:12:45;12.00;99.90
6581;DHT22;3324;50.796;7.228;2024-02-21T14:15:11;12.20;99.90
6581;DHT22;3324;50.796;7.228;2024-02-21T14:17:36;12.00;99.90
6581;DHT22;3324;50.796;7.228;2024-02-21T14:20:02;12.10;99.90
6581;DHT22;3324;50.796;7.228;2024-02-21T14:22:30;12.10;99.90
6581;DHT22;3324;50.796;7.228;2024-02-21T14:24:55;12.10;99.90
6581;DHT22;3324;50.796;7.228;2024-02-21T14:27:21;12.10;99.90
6581;DHT22;3324;50.796;7.228;2024-02-21T14:29:47;12.10;99.90
6581;DHT22;3324;50.796;7.228;2024-02-21T14:32:12;12.10;99.90
6581;DHT22;3324;50.796;7.228;2024-02-21T14:34:38;12.10;99.90
6581;DHT22;3324;50.796;7.228;2024-02-21T14:37:04;12.00;99.90
6581;DHT22;3324;50.796;7.228;2024-02-21T14:39:29;12.00;99.90
6581;DHT22;3324;50.796;7.228;2024-02-21T14:41:55;11.90;99.90
6581;DHT22;3324;50.796;7.228;2024-02-21T14:44:20;12.00;99.90
6581;DHT22;3324;50.796;7.228;2024-02-21T14:46:46;11.90;99.90
6581;DHT22;3324;50.796;7.228;2024-02-21T14:49:11;12.00;99.90
6581;DHT22;3324;50.796;7.228;2024-02-21T14:51:37;12.00;99.90
6581;DHT22;3324;50.796;7.228;2024-02-21T14:54:02;12.10;99.90
6581;DHT22;3324;50.796;7.228;2024-02-21T14:56:28;12.10;99.90
6581;DHT22;3324;50.796;7.228;2024-02-21T14:58:53;12.20;99.90
6581;DHT22;3324;50.796;7.228;2024-02-21T15:01:19;12.20;99.90
6581;DHT22;3324;50.796;7.228;2024-02-21T15:03:44;12.30;99.90
6581;DHT22;3324;50.796;7.228;2024-02-21T15:06:10;12.30;99.90
6581;DHT22;3324;50.796;7.228;2024-02-21T15:08:36;12.30;99.90
6581;DHT22;3324;50.796;7.228;2024-02-21T15:11:01;12.30;99.90
6581;DHT22;3324;50.796;7.228;2024-02-21T15:13:28;12.30;99.90
6581;DHT22;3324;50.796;7.228;2024-02-21T15:15:54;12.30;99.90
6581;DHT22;3324;50.796;7.228;2024-02-21T15:18:19;12.20;99.90
6581;DHT22;3324;50.796;7.228;2024-02-21T15:20:45;12.30;99.90
6581;DHT22;3324;50.796;7.228;2024-02-21T15:23:10;12.30;99.90
6581;DHT22;3324;50.796;7.228;2024-02-21T15:25:36;12.20;99.90
6581;DHT22;3324;50.796;7.228;2024-02-21T15:28:02;12.10;99.90
6581;DHT22;3324;50.796;7.228;2024-02-21T15:30:29;12.10;99.90
6581;DHT22;3324;50.796;7.228;2024-02-21T15:32:57;12.10;99.90
6581;DHT22;3324;50.796;7.228;2024-02-21T15:35:27;12.10;99.90
6581;DHT22;3324;50.796;7.228;2024-02-21T15:37:53;12.10;99.90
6581;DHT22;3324;50.796;7.228;2024-02-21T15:40:18;12.10;99.90
6581;DHT22;3324;50.796;7.228;2024-02-21T15:42:44;12.10;99.90
6581;DHT22;3324;50.796;7.228;2024-02-21T15:45:09;12.10;99.90
6581;DHT22;3324;50.796;7.228;2024-02-21T15:47:35;12.10;99.90
6581;DHT22;3324;50.796;7.228;2024-02-21T15:50:00;12.10;99.90
6581;DHT22;3324;50.796;7.228;2024-02-21T15:52:27;12.10;99.90
6581;DHT22;3324;50.796;7.228;2024-02-21T15:54:52;12.10;99.90
6581;DHT22;3324;50.796;7.228;2024-02-21T15:57:18;12.10;99.90
6581;DHT22;3324;50.796;7.228;2024-02-21T15:59:43;12.10;99.90
6581;DHT22;3324;50.796;7.228;2024-02-21T16:02:09;12.10;99.90
6581;DHT22;3324;50.796;7.228;2024-02-21T16:04:34;12.10;99.90
6581;DHT22;3324;50.796;7.228;2024-02-21T16:07:00;12.10;99.90